sensor_id;sensor_type;location;lat;lon;timestamp;pressure;altitude;pressure_sealevel;temperature
64624;BMP280;51031;50.912;9.242;2022-08-14T00:00:09;98919.03;;;29.99
64624;BMP280;51031;50.912;9.242;2022-08-14T00:00:27;98908.25;;;29.99
64624;BMP280;51031;50.912;9.242;2022-08-14T00:00:43;98913.66;;;29.99
64624;BMP280;51031;50.912;9.242;2022-08-14T00:00:59;98913.66;;;29.99
64624;BMP280;51031;50.912;9.242;2022-08-14T00:01:14;98909.06;;;30.00
64624;BMP280;51031;50.912;9.242;2022-08-14T00:01:30;98911.78;;;30.00
64624;BMP280;51031;50.912;9.242;2022-08-14T00:01:46;98914.69;;;29.98
64624;BMP280;51031;50.912;9.242;2022-08-14T00:02:04;98909.06;;;30.00
64624;BMP280;51031;50.912;9.242;2022-08-14T00:02:20;98905.53;;;29.99
64624;BMP280;51031;50.912;9.242;2022-08-14T00:02:36;98908.25;;;29.99
64624;BMP280;51031;50.912;9.242;2022-08-14T00:02:52;98906.38;;;30.00
64624;BMP280;51031;50.912;9.242;2022-08-14T00:03:17;98903.88;;;29.98
64624;BMP280;51031;50.912;9.242;2022-08-14T00:03:33;98905.75;;;29.98
64624;BMP280;51031;50.912;9.242;2022-08-14T00:03:50;98912.00;;;29.98
64624;BMP280;51031;50.912;9.242;2022-08-14T00:04:06;98906.59;;;29.98
64624;BMP280;51031;50.912;9.242;2022-08-14T00:04:21;98910.31;;;29.97
64624;BMP280;51031;50.912;9.242;2022-08-14T00:04:37;98907.59;;;29.97
64624;BMP280;51031;50.912;9.242;2022-08-14T00:04:53;98905.94;;;29.96
64624;BMP280;51031;50.912;9.242;2022-08-14T00:05:11;98906.78;;;29.97
64624;BMP280;51031;50.912;9.242;2022-08-14T00:05:28;98908.66;;;29.96
64624;BMP280;51031;50.912;9.242;2022-08-14T00:05:44;98908.66;;;29.96
64624;BMP280;51031;50.912;9.242;2022-08-14T00:06:01;98905.94;;;29.96
64624;BMP280;51031;50.912;9.242;2022-08-14T00:06:17;98907.81;;;29.96
64624;BMP280;51031;50.912;9.242;2022-08-14T00:06:33;98905.13;;;29.96
64624;BMP280;51031;50.912;9.242;2022-08-14T00:06:49;98904.28;;;29.95
64624;BMP280;51031;50.912;9.242;2022-08-14T00:07:06;98906.16;;;29.95
64624;BMP280;51031;50.912;9.242;2022-08-14T00:07:22;98905.34;;;29.94
64624;BMP280;51031;50.912;9.242;2022-08-14T00:07:38;98902.63;;;29.94
64624;BMP280;51031;50.912;9.242;2022-08-14T00:07:54;98905.34;;;29.94
64624;BMP280;51031;50.912;9.242;2022-08-14T00:08:10;98905.34;;;29.94
64624;BMP280;51031;50.912;9.242;2022-08-14T00:08:26;98908.03;;;29.94
64624;BMP280;51031;50.912;9.242;2022-08-14T00:08:43;98905.34;;;29.94
64624;BMP280;51031;50.912;9.242;2022-08-14T00:09:02;98904.47;;;29.94
64624;BMP280;51031;50.912;9.242;2022-08-14T00:09:18;98910.75;;;29.94
64624;BMP280;51031;50.912;9.242;2022-08-14T00:09:34;98903.47;;;29.95
64624;BMP280;51031;50.912;9.242;2022-08-14T00:09:50;98905.34;;;29.94
64624;BMP280;51031;50.912;9.242;2022-08-14T00:10:11;98902.63;;;29.94
64624;BMP280;51031;50.912;9.242;2022-08-14T00:10:29;98903.47;;;29.95
64624;BMP280;51031;50.912;9.242;2022-08-14T00:10:45;98908.03;;;29.94
64624;BMP280;51031;50.912;9.242;2022-08-14T00:11:01;98904.47;;;29.94
64624;BMP280;51031;50.912;9.242;2022-08-14T00:11:17;98900.94;;;29.93
64624;BMP280;51031;50.912;9.242;2022-08-14T00:11:33;98906.34;;;29.93
64624;BMP280;51031;50.912;9.242;2022-08-14T00:11:50;98900.13;;;29.93
64624;BMP280;51031;50.912;9.242;2022-08-14T00:12:06;98900.94;;;29.93
64624;BMP280;51031;50.912;9.242;2022-08-14T00:12:23;98897.66;;;29.91
64624;BMP280;51031;50.912;9.242;2022-08-14T00:12:42;98900.34;;;29.91
64624;BMP280;51031;50.912;9.242;2022-08-14T00:12:58;98895.78;;;29.92
64624;BMP280;51031;50.912;9.242;2022-08-14T00:13:17;98903.88;;;29.92
64624;BMP280;51031;50.912;9.242;2022-08-14T00:13:35;98901.16;;;29.92
64624;BMP280;51031;50.912;9.242;2022-08-14T00:13:52;98901.16;;;29.92
64624;BMP280;51031;50.912;9.242;2022-08-14T00:14:08;98906.56;;;29.92
64624;BMP280;51031;50.912;9.242;2022-08-14T00:14:26;98903.88;;;29.92
64624;BMP280;51031;50.912;9.242;2022-08-14T00:14:43;98900.34;;;29.91
64624;BMP280;51031;50.912;9.242;2022-08-14T00:14:59;98901.16;;;29.92
64624;BMP280;51031;50.912;9.242;2022-08-14T00:15:23;98901.16;;;29.92
64624;BMP280;51031;50.912;9.242;2022-08-14T00:15:41;98903.03;;;29.91
64624;BMP280;51031;50.912;9.242;2022-08-14T00:15:58;98905.53;;;29.93
64624;BMP280;51031;50.912;9.242;2022-08-14T00:16:16;98894.94;;;29.91
64624;BMP280;51031;50.912;9.242;2022-08-14T00:16:31;98900.34;;;29.91
64624;BMP280;51031;50.912;9.242;2022-08-14T00:16:47;98897.66;;;29.91
64624;BMP280;51031;50.912;9.242;2022-08-14T00:17:05;98899.53;;;29.91
64624;BMP280;51031;50.912;9.242;2022-08-14T00:17:21;98899.53;;;29.91
64624;BMP280;51031;50.912;9.242;2022-08-14T00:17:37;98897.84;;;29.90
64624;BMP280;51031;50.912;9.242;2022-08-14T00:17:54;98899.72;;;29.89
64624;BMP280;51031;50.912;9.242;2022-08-14T00:18:14;98902.41;;;29.89
64624;BMP280;51031;50.912;9.242;2022-08-14T00:18:30;98894.53;;;29.88
64624;BMP280;51031;50.912;9.242;2022-08-14T00:18:46;98899.09;;;29.87
64624;BMP280;51031;50.912;9.242;2022-08-14T00:19:03;98898.06;;;29.88
64624;BMP280;51031;50.912;9.242;2022-08-14T00:19:19;98902.41;;;29.89
64624;BMP280;51031;50.912;9.242;2022-08-14T00:19:35;98899.94;;;29.88
64624;BMP280;51031;50.912;9.242;2022-08-14T00:19:51;98889.94;;;29.88
64624;BMP280;51031;50.912;9.242;2022-08-14T00:20:08;98899.09;;;29.87
64624;BMP280;51031;50.912;9.242;2022-08-14T00:20:26;98891.00;;;29.87
64624;BMP280;51031;50.912;9.242;2022-08-14T00:20:43;98891.00;;;29.87
64624;BMP280;51031;50.912;9.242;2022-08-14T00:20:59;98895.75;;;29.85
64624;BMP280;51031;50.912;9.242;2022-08-14T00:21:15;98894.09;;;29.84
64624;BMP280;51031;50.912;9.242;2022-08-14T00:21:31;98894.09;;;29.84
64624;BMP280;51031;50.912;9.242;2022-08-14T00:21:47;98893.28;;;29.84
64624;BMP280;51031;50.912;9.242;2022-08-14T00:22:04;98897.81;;;29.83
64624;BMP280;51031;50.912;9.242;2022-08-14T00:22:20;98895.34;;;29.82
64624;BMP280;51031;50.912;9.242;2022-08-14T00:22:37;98894.50;;;29.82
64624;BMP280;51031;50.912;9.242;2022-08-14T00:22:53;98893.69;;;29.81
64624;BMP280;51031;50.912;9.242;2022-08-14T00:23:10;98892.00;;;29.80
64624;BMP280;51031;50.912;9.242;2022-08-14T00:23:27;98897.41;;;29.80
64624;BMP280;51031;50.912;9.242;2022-08-14T00:23:43;98891.16;;;29.80
64624;BMP280;51031;50.912;9.242;2022-08-14T00:23:59;98894.91;;;29.79
64624;BMP280;51031;50.912;9.242;2022-08-14T00:24:15;98895.75;;;29.79
64624;BMP280;51031;50.912;9.242;2022-08-14T00:24:31;98888.47;;;29.80
64624;BMP280;51031;50.912;9.242;2022-08-14T00:24:46;98892.44;;;29.77
64624;BMP280;51031;50.912;9.242;2022-08-14T00:25:03;98883.47;;;29.77
64624;BMP280;51031;50.912;9.242;2022-08-14T00:25:20;98892.63;;;29.76
64624;BMP280;51031;50.912;9.242;2022-08-14T00:25:36;98888.28;;;29.75
64624;BMP280;51031;50.912;9.242;2022-08-14T00:25:53;98894.50;;;29.75
64624;BMP280;51031;50.912;9.242;2022-08-14T00:26:09;98887.44;;;29.74
64624;BMP280;51031;50.912;9.242;2022-08-14T00:26:25;98891.97;;;29.74
64624;BMP280;51031;50.912;9.242;2022-08-14T00:26:42;98887.63;;;29.73
64624;BMP280;51031;50.912;9.242;2022-08-14T00:26:58;98883.88;;;29.74
64624;BMP280;51031;50.912;9.242;2022-08-14T00:27:13;98892.19;;;29.72
64624;BMP280;51031;50.912;9.242;2022-08-14T00:27:29;98891.16;;;29.73
64624;BMP280;51031;50.912;9.242;2022-08-14T00:27:45;98888.69;;;29.72
64624;BMP280;51031;50.912;9.242;2022-08-14T00:28:02;98885.16;;;29.71
64624;BMP280;51031;50.912;9.242;2022-08-14T00:28:18;98889.72;;;29.71
64624;BMP280;51031;50.912;9.242;2022-08-14T00:28:40;98888.88;;;29.70
64624;BMP280;51031;50.912;9.242;2022-08-14T00:28:56;98887.03;;;29.71
64624;BMP280;51031;50.912;9.242;2022-08-14T00:29:12;98887.03;;;29.71
64624;BMP280;51031;50.912;9.242;2022-08-14T00:29:28;98887.03;;;29.71
64624;BMP280;51031;50.912;9.242;2022-08-14T00:29:45;98889.72;;;29.71
64624;BMP280;51031;50.912;9.242;2022-08-14T00:30:02;98888.88;;;29.70
64624;BMP280;51031;50.912;9.242;2022-08-14T00:30:20;98890.72;;;29.70
64624;BMP280;51031;50.912;9.242;2022-08-14T00:30:35;98881.63;;;29.71
64624;BMP280;51031;50.912;9.242;2022-08-14T00:30:53;98885.34;;;29.70
64624;BMP280;51031;50.912;9.242;2022-08-14T00:31:12;98880.75;;;29.70
64624;BMP280;51031;50.912;9.242;2022-08-14T00:31:29;98887.03;;;29.71
64624;BMP280;51031;50.912;9.242;2022-08-14T00:31:45;98886.16;;;29.70
64624;BMP280;51031;50.912;9.242;2022-08-14T00:32:00;98879.09;;;29.69
64624;BMP280;51031;50.912;9.242;2022-08-14T00:32:16;98887.22;;;29.69
64624;BMP280;51031;50.912;9.242;2022-08-14T00:32:35;98885.34;;;29.70
64624;BMP280;51031;50.912;9.242;2022-08-14T00:32:52;98885.34;;;29.70
64624;BMP280;51031;50.912;9.242;2022-08-14T00:33:08;98885.34;;;29.70
64624;BMP280;51031;50.912;9.242;2022-08-14T00:33:26;98886.16;;;29.70
64624;BMP280;51031;50.912;9.242;2022-08-14T00:33:43;98880.75;;;29.70
64624;BMP280;51031;50.912;9.242;2022-08-14T00:33:58;98882.63;;;29.70
64624;BMP280;51031;50.912;9.242;2022-08-14T00:34:15;98880.97;;;29.69
64624;BMP280;51031;50.912;9.242;2022-08-14T00:34:31;98879.09;;;29.69
64624;BMP280;51031;50.912;9.242;2022-08-14T00:34:47;98880.97;;;29.69
64624;BMP280;51031;50.912;9.242;2022-08-14T00:35:03;98883.69;;;29.69
64624;BMP280;51031;50.912;9.242;2022-08-14T00:35:19;98883.69;;;29.69
64624;BMP280;51031;50.912;9.242;2022-08-14T00:35:35;98875.56;;;29.69
64624;BMP280;51031;50.912;9.242;2022-08-14T00:35:52;98886.38;;;29.69
64624;BMP280;51031;50.912;9.242;2022-08-14T00:36:08;98878.28;;;29.69
64624;BMP280;51031;50.912;9.242;2022-08-14T00:36:24;98878.28;;;29.69
64624;BMP280;51031;50.912;9.242;2022-08-14T00:36:40;98884.50;;;29.69
64624;BMP280;51031;50.912;9.242;2022-08-14T00:36:56;98878.50;;;29.67
64624;BMP280;51031;50.912;9.242;2022-08-14T00:37:12;98886.38;;;29.69
64624;BMP280;51031;50.912;9.242;2022-08-14T00:37:30;98879.09;;;29.69
64624;BMP280;51031;50.912;9.242;2022-08-14T00:37:46;98879.31;;;29.68
64624;BMP280;51031;50.912;9.242;2022-08-14T00:38:02;98884.50;;;29.69
64624;BMP280;51031;50.912;9.242;2022-08-14T00:38:19;98883.69;;;29.69
64624;BMP280;51031;50.912;9.242;2022-08-14T00:38:35;98880.97;;;29.69
64624;BMP280;51031;50.912;9.242;2022-08-14T00:38:52;98886.38;;;29.69
64624;BMP280;51031;50.912;9.242;2022-08-14T00:39:11;98881.19;;;29.67
64624;BMP280;51031;50.912;9.242;2022-08-14T00:39:27;98886.38;;;29.69
64624;BMP280;51031;50.912;9.242;2022-08-14T00:39:43;98881.19;;;29.67
64624;BMP280;51031;50.912;9.242;2022-08-14T00:39:59;98889.06;;;29.69
64624;BMP280;51031;50.912;9.242;2022-08-14T00:40:17;98886.59;;;29.67
64624;BMP280;51031;50.912;9.242;2022-08-14T00:40:34;98883.03;;;29.67
64624;BMP280;51031;50.912;9.242;2022-08-14T00:40:50;98883.03;;;29.67
64624;BMP280;51031;50.912;9.242;2022-08-14T00:41:06;98885.75;;;29.67
64624;BMP280;51031;50.912;9.242;2022-08-14T00:41:29;98891.13;;;29.67
64624;BMP280;51031;50.912;9.242;2022-08-14T00:41:45;98888.44;;;29.67
64624;BMP280;51031;50.912;9.242;2022-08-14T00:42:03;98884.91;;;29.66
64624;BMP280;51031;50.912;9.242;2022-08-14T00:42:20;98884.09;;;29.66
64624;BMP280;51031;50.912;9.242;2022-08-14T00:42:36;98884.09;;;29.66
64624;BMP280;51031;50.912;9.242;2022-08-14T00:42:52;98884.09;;;29.66
64624;BMP280;51031;50.912;9.242;2022-08-14T00:43:08;98894.06;;;29.65
64624;BMP280;51031;50.912;9.242;2022-08-14T00:43:24;98885.13;;;29.65
64624;BMP280;51031;50.912;9.242;2022-08-14T00:43:43;98889.50;;;29.66
64624;BMP280;51031;50.912;9.242;2022-08-14T00:43:59;98889.50;;;29.66
64624;BMP280;51031;50.912;9.242;2022-08-14T00:44:15;98887.84;;;29.65
64624;BMP280;51031;50.912;9.242;2022-08-14T00:44:31;98880.56;;;29.65
64624;BMP280;51031;50.912;9.242;2022-08-14T00:44:47;98882.44;;;29.65
64624;BMP280;51031;50.912;9.242;2022-08-14T00:45:05;98888.66;;;29.65
64624;BMP280;51031;50.912;9.242;2022-08-14T00:45:22;98881.59;;;29.64
64624;BMP280;51031;50.912;9.242;2022-08-14T00:45:38;98890.53;;;29.65
64624;BMP280;51031;50.912;9.242;2022-08-14T00:45:54;98895.94;;;29.65
64624;BMP280;51031;50.912;9.242;2022-08-14T00:46:11;98886.78;;;29.66
64624;BMP280;51031;50.912;9.242;2022-08-14T00:46:27;98883.25;;;29.65
64624;BMP280;51031;50.912;9.242;2022-08-14T00:46:43;98885.97;;;29.65
64624;BMP280;51031;50.912;9.242;2022-08-14T00:47:01;98887.84;;;29.65
64624;BMP280;51031;50.912;9.242;2022-08-14T00:47:17;98882.44;;;29.65
64624;BMP280;51031;50.912;9.242;2022-08-14T00:47:34;98877.84;;;29.65
64624;BMP280;51031;50.912;9.242;2022-08-14T00:47:50;98885.13;;;29.65
64624;BMP280;51031;50.912;9.242;2022-08-14T00:48:06;98882.44;;;29.65
64624;BMP280;51031;50.912;9.242;2022-08-14T00:48:22;98885.13;;;29.65
64624;BMP280;51031;50.912;9.242;2022-08-14T00:48:40;98883.47;;;29.64
64624;BMP280;51031;50.912;9.242;2022-08-14T00:48:56;98893.22;;;29.65
64624;BMP280;51031;50.912;9.242;2022-08-14T00:49:11;98886.19;;;29.64
64624;BMP280;51031;50.912;9.242;2022-08-14T00:49:27;98887.00;;;29.64
64624;BMP280;51031;50.912;9.242;2022-08-14T00:49:44;98886.19;;;29.64
64624;BMP280;51031;50.912;9.242;2022-08-14T00:50:00;98890.53;;;29.65
64624;BMP280;51031;50.912;9.242;2022-08-14T00:50:21;98885.13;;;29.65
64624;BMP280;51031;50.912;9.242;2022-08-14T00:50:37;98887.00;;;29.64
64624;BMP280;51031;50.912;9.242;2022-08-14T00:50:53;98888.88;;;29.64
64624;BMP280;51031;50.912;9.242;2022-08-14T00:51:09;98885.31;;;29.63
64624;BMP280;51031;50.912;9.242;2022-08-14T00:51:25;98885.31;;;29.63
64624;BMP280;51031;50.912;9.242;2022-08-14T00:51:47;98884.50;;;29.63
64624;BMP280;51031;50.912;9.242;2022-08-14T00:52:04;98881.78;;;29.63
64624;BMP280;51031;50.912;9.242;2022-08-14T00:52:20;98887.19;;;29.63
64624;BMP280;51031;50.912;9.242;2022-08-14T00:52:37;98879.09;;;29.63
64624;BMP280;51031;50.912;9.242;2022-08-14T00:52:53;98884.50;;;29.63
64624;BMP280;51031;50.912;9.242;2022-08-14T00:53:10;98883.66;;;29.62
64624;BMP280;51031;50.912;9.242;2022-08-14T00:53:26;98876.59;;;29.61
64624;BMP280;51031;50.912;9.242;2022-08-14T00:53:42;98878.47;;;29.61
64624;BMP280;51031;50.912;9.242;2022-08-14T00:53:59;98884.91;;;29.60
64624;BMP280;51031;50.912;9.242;2022-08-14T00:54:16;98887.59;;;29.60
64624;BMP280;51031;50.912;9.242;2022-08-14T00:54:34;98888.63;;;29.59
64624;BMP280;51031;50.912;9.242;2022-08-14T00:54:54;98887.00;;;29.58
64624;BMP280;51031;50.912;9.242;2022-08-14T00:55:11;98885.28;;;29.57
64624;BMP280;51031;50.912;9.242;2022-08-14T00:55:29;98885.28;;;29.57
64624;BMP280;51031;50.912;9.242;2022-08-14T00:55:45;98885.47;;;29.55
64624;BMP280;51031;50.912;9.242;2022-08-14T00:56:03;98890.06;;;29.55
64624;BMP280;51031;50.912;9.242;2022-08-14T00:56:19;98883.19;;;29.53
64624;BMP280;51031;50.912;9.242;2022-08-14T00:56:36;98886.09;;;29.51
64624;BMP280;51031;50.912;9.242;2022-08-14T00:56:52;98881.09;;;29.48
64624;BMP280;51031;50.912;9.242;2022-08-14T00:57:09;98886.72;;;29.47
64624;BMP280;51031;50.912;9.242;2022-08-14T00:57:30;98886.91;;;29.45
64624;BMP280;51031;50.912;9.242;2022-08-14T00:57:48;98889.81;;;29.44
64624;BMP280;51031;50.912;9.242;2022-08-14T00:58:24;98884.63;;;29.42
64624;BMP280;51031;50.912;9.242;2022-08-14T00:58:46;98885.66;;;29.41
64624;BMP280;51031;50.912;9.242;2022-08-14T00:59:04;98881.31;;;29.40
64624;BMP280;51031;50.912;9.242;2022-08-14T00:59:19;98879.44;;;29.41
64624;BMP280;51031;50.912;9.242;2022-08-14T00:59:35;98884.00;;;29.40
64624;BMP280;51031;50.912;9.242;2022-08-14T00:59:51;98878.78;;;29.39
64624;BMP280;51031;50.912;9.242;2022-08-14T01:00:11;98886.06;;;29.38
64624;BMP280;51031;50.912;9.242;2022-08-14T01:00:28;98879.84;;;29.38
64624;BMP280;51031;50.912;9.242;2022-08-14T01:00:48;98879.84;;;29.38
64624;BMP280;51031;50.912;9.242;2022-08-14T01:01:06;98879.84;;;29.38
64624;BMP280;51031;50.912;9.242;2022-08-14T01:01:23;98877.34;;;29.36
64624;BMP280;51031;50.912;9.242;2022-08-14T01:01:39;98880.06;;;29.36
64624;BMP280;51031;50.912;9.242;2022-08-14T01:01:57;98880.06;;;29.36
64624;BMP280;51031;50.912;9.242;2022-08-14T01:02:15;98874.66;;;29.36
64624;BMP280;51031;50.912;9.242;2022-08-14T01:02:35;98881.88;;;29.36
64624;BMP280;51031;50.912;9.242;2022-08-14T01:02:51;98880.25;;;29.35
64624;BMP280;51031;50.912;9.242;2022-08-14T01:03:07;98882.09;;;29.34
64624;BMP280;51031;50.912;9.242;2022-08-14T01:03:25;98874.19;;;29.33
64624;BMP280;51031;50.912;9.242;2022-08-14T01:03:45;98874.41;;;29.31
64624;BMP280;51031;50.912;9.242;2022-08-14T01:04:02;98872.75;;;29.30
64624;BMP280;51031;50.912;9.242;2022-08-14T01:04:18;98879.16;;;29.29
64624;BMP280;51031;50.912;9.242;2022-08-14T01:04:34;98876.47;;;29.29
64624;BMP280;51031;50.912;9.242;2022-08-14T01:04:52;98874.81;;;29.28
64624;BMP280;51031;50.912;9.242;2022-08-14T01:05:08;98876.47;;;29.29
64624;BMP280;51031;50.912;9.242;2022-08-14T01:05:38;98878.16;;;29.30
64624;BMP280;51031;50.912;9.242;2022-08-14T01:05:56;98868.38;;;29.29
64624;BMP280;51031;50.912;9.242;2022-08-14T01:06:13;98872.75;;;29.30
64624;BMP280;51031;50.912;9.242;2022-08-14T01:06:31;98867.38;;;29.30
64624;BMP280;51031;50.912;9.242;2022-08-14T01:06:48;98872.75;;;29.30
64624;BMP280;51031;50.912;9.242;2022-08-14T01:07:05;98873.59;;;29.31
64624;BMP280;51031;50.912;9.242;2022-08-14T01:07:23;98872.75;;;29.30
64624;BMP280;51031;50.912;9.242;2022-08-14T01:07:40;98868.78;;;29.33
64624;BMP280;51031;50.912;9.242;2022-08-14T01:07:57;98870.66;;;29.32
64624;BMP280;51031;50.912;9.242;2022-08-14T01:08:18;98872.34;;;29.33
64624;BMP280;51031;50.912;9.242;2022-08-14T01:08:35;98866.97;;;29.33
64624;BMP280;51031;50.912;9.242;2022-08-14T01:08:54;98866.97;;;29.33
64624;BMP280;51031;50.912;9.242;2022-08-14T01:09:11;98868.63;;;29.34
64624;BMP280;51031;50.912;9.242;2022-08-14T01:09:27;98869.44;;;29.35
64624;BMP280;51031;50.912;9.242;2022-08-14T01:09:45;98870.28;;;29.35
64624;BMP280;51031;50.912;9.242;2022-08-14T01:10:03;98869.44;;;29.35
64624;BMP280;51031;50.912;9.242;2022-08-14T01:10:23;98869.44;;;29.35
64624;BMP280;51031;50.912;9.242;2022-08-14T01:11:01;98869.44;;;29.35
64624;BMP280;51031;50.912;9.242;2022-08-14T01:11:17;98861.56;;;29.33
64624;BMP280;51031;50.912;9.242;2022-08-14T01:11:37;98866.97;;;29.33
64624;BMP280;51031;50.912;9.242;2022-08-14T01:11:52;98866.97;;;29.33
64624;BMP280;51031;50.912;9.242;2022-08-14T01:12:09;98866.97;;;29.33
64624;BMP280;51031;50.912;9.242;2022-08-14T01:12:27;98866.09;;;29.33
64624;BMP280;51031;50.912;9.242;2022-08-14T01:12:43;98860.91;;;29.31
64624;BMP280;51031;50.912;9.242;2022-08-14T01:13:00;98871.72;;;29.31
64624;BMP280;51031;50.912;9.242;2022-08-14T01:13:18;98867.38;;;29.30
64624;BMP280;51031;50.912;9.242;2022-08-14T01:13:37;98868.19;;;29.31
64624;BMP280;51031;50.912;9.242;2022-08-14T01:13:54;98872.75;;;29.30
64624;BMP280;51031;50.912;9.242;2022-08-14T01:14:15;98870.06;;;29.30
64624;BMP280;51031;50.912;9.242;2022-08-14T01:14:31;98868.19;;;29.31
64624;BMP280;51031;50.912;9.242;2022-08-14T01:14:47;98864.66;;;29.30
64624;BMP280;51031;50.912;9.242;2022-08-14T01:15:07;98872.75;;;29.30
64624;BMP280;51031;50.912;9.242;2022-08-14T01:15:23;98867.38;;;29.30
64624;BMP280;51031;50.912;9.242;2022-08-14T01:15:39;98872.75;;;29.30
64624;BMP280;51031;50.912;9.242;2022-08-14T01:15:57;98863.84;;;29.30
64624;BMP280;51031;50.912;9.242;2022-08-14T01:16:15;98869.22;;;29.30
64624;BMP280;51031;50.912;9.242;2022-08-14T01:16:31;98864.84;;;29.29
64624;BMP280;51031;50.912;9.242;2022-08-14T01:16:48;98868.38;;;29.29
64624;BMP280;51031;50.912;9.242;2022-08-14T01:17:04;98864.84;;;29.29
64624;BMP280;51031;50.912;9.242;2022-08-14T01:17:20;98867.75;;;29.27
64624;BMP280;51031;50.912;9.242;2022-08-14T01:17:35;98871.50;;;29.27
64624;BMP280;51031;50.912;9.242;2022-08-14T01:18:10;98868.38;;;29.23
64624;BMP280;51031;50.912;9.242;2022-08-14T01:18:46;98868.53;;;29.15
64624;BMP280;51031;50.912;9.242;2022-08-14T01:19:20;98868.31;;;29.10
64624;BMP280;51031;50.912;9.242;2022-08-14T01:19:54;98867.69;;;29.08
64624;BMP280;51031;50.912;9.242;2022-08-14T01:20:30;98868.94;;;29.06
64624;BMP280;51031;50.912;9.242;2022-08-14T01:21:06;98868.22;;;28.98
64624;BMP280;51031;50.912;9.242;2022-08-14T01:21:29;98868.44;;;28.96
64624;BMP280;51031;50.912;9.242;2022-08-14T01:21:45;98871.31;;;28.95
64624;BMP280;51031;50.912;9.242;2022-08-14T01:22:01;98868.63;;;28.95
64624;BMP280;51031;50.912;9.242;2022-08-14T01:22:18;98864.28;;;28.94
64624;BMP280;51031;50.912;9.242;2022-08-14T01:22:34;98868.84;;;28.93
64624;BMP280;51031;50.912;9.242;2022-08-14T01:22:50;98868.00;;;28.93
64624;BMP280;51031;50.912;9.242;2022-08-14T01:23:08;98868.00;;;28.93
64624;BMP280;51031;50.912;9.242;2022-08-14T01:23:25;98869.88;;;28.92
64624;BMP280;51031;50.912;9.242;2022-08-14T01:23:43;98866.31;;;28.92
64624;BMP280;51031;50.912;9.242;2022-08-14T01:24:02;98867.19;;;28.92
64624;BMP280;51031;50.912;9.242;2022-08-14T01:24:18;98861.78;;;28.92
64624;BMP280;51031;50.912;9.242;2022-08-14T01:24:35;98860.09;;;28.91
64624;BMP280;51031;50.912;9.242;2022-08-14T01:24:51;98860.09;;;28.91
64624;BMP280;51031;50.912;9.242;2022-08-14T01:25:07;98856.59;;;28.91
64624;BMP280;51031;50.912;9.242;2022-08-14T01:25:23;98865.50;;;28.91
64624;BMP280;51031;50.912;9.242;2022-08-14T01:25:40;98857.41;;;28.91
64624;BMP280;51031;50.912;9.242;2022-08-14T01:25:56;98860.94;;;28.92
64624;BMP280;51031;50.912;9.242;2022-08-14T01:26:14;98859.09;;;28.92
64624;BMP280;51031;50.912;9.242;2022-08-14T01:26:30;98863.44;;;28.93
64624;BMP280;51031;50.912;9.242;2022-08-14T01:26:47;98856.41;;;28.92
64624;BMP280;51031;50.912;9.242;2022-08-14T01:27:03;98854.53;;;28.93
64624;BMP280;51031;50.912;9.242;2022-08-14T01:27:21;98861.56;;;28.94
64624;BMP280;51031;50.912;9.242;2022-08-14T01:27:37;98858.88;;;28.94
64624;BMP280;51031;50.912;9.242;2022-08-14T01:27:58;98860.53;;;28.95
64624;BMP280;51031;50.912;9.242;2022-08-14T01:28:14;98855.97;;;28.95
64624;BMP280;51031;50.912;9.242;2022-08-14T01:28:32;98856.81;;;28.96
64624;BMP280;51031;50.912;9.242;2022-08-14T01:28:54;98863.06;;;28.96
64624;BMP280;51031;50.912;9.242;2022-08-14T01:29:10;98863.06;;;28.96
64624;BMP280;51031;50.912;9.242;2022-08-14T01:29:28;98853.91;;;28.97
64624;BMP280;51031;50.912;9.242;2022-08-14T01:29:45;98855.56;;;28.98
64624;BMP280;51031;50.912;9.242;2022-08-14T01:30:04;98863.66;;;28.98
64624;BMP280;51031;50.912;9.242;2022-08-14T01:30:22;98858.25;;;28.98
64624;BMP280;51031;50.912;9.242;2022-08-14T01:30:41;98857.25;;;28.99
64624;BMP280;51031;50.912;9.242;2022-08-14T01:30:58;98859.97;;;28.99
64624;BMP280;51031;50.912;9.242;2022-08-14T01:31:15;98855.56;;;28.98
64624;BMP280;51031;50.912;9.242;2022-08-14T01:31:33;98862.66;;;28.99
64624;BMP280;51031;50.912;9.242;2022-08-14T01:31:50;98858.09;;;28.99
64624;BMP280;51031;50.912;9.242;2022-08-14T01:32:07;98858.91;;;29.00
64624;BMP280;51031;50.912;9.242;2022-08-14T01:32:23;98862.66;;;28.99
64624;BMP280;51031;50.912;9.242;2022-08-14T01:32:39;98858.91;;;29.00
64624;BMP280;51031;50.912;9.242;2022-08-14T01:32:55;98860.78;;;28.99
64624;BMP280;51031;50.912;9.242;2022-08-14T01:33:11;98860.13;;;28.98
64624;BMP280;51031;50.912;9.242;2022-08-14T01:33:28;98860.34;;;28.96
64624;BMP280;51031;50.912;9.242;2022-08-14T01:33:46;98863.06;;;28.96
64624;BMP280;51031;50.912;9.242;2022-08-14T01:34:05;98862.41;;;28.94
64624;BMP280;51031;50.912;9.242;2022-08-14T01:34:21;98855.53;;;28.92
64624;BMP280;51031;50.912;9.242;2022-08-14T01:34:40;98865.91;;;28.88
64624;BMP280;51031;50.912;9.242;2022-08-14T01:34:56;98862.59;;;28.86
64624;BMP280;51031;50.912;9.242;2022-08-14T01:35:12;98853.84;;;28.84
64624;BMP280;51031;50.912;9.242;2022-08-14T01:35:28;98856.94;;;28.81
64624;BMP280;51031;50.912;9.242;2022-08-14T01:35:45;98857.34;;;28.78
64624;BMP280;51031;50.912;9.242;2022-08-14T01:36:01;98862.13;;;28.76
64624;BMP280;51031;50.912;9.242;2022-08-14T01:36:18;98861.69;;;28.73
64624;BMP280;51031;50.912;9.242;2022-08-14T01:36:36;98859.16;;;28.71
64624;BMP280;51031;50.912;9.242;2022-08-14T01:36:52;98862.28;;;28.69
64624;BMP280;51031;50.912;9.242;2022-08-14T01:37:09;98856.25;;;28.67
64624;BMP280;51031;50.912;9.242;2022-08-14T01:37:25;98860.00;;;28.66
64624;BMP280;51031;50.912;9.242;2022-08-14T01:37:43;98852.91;;;28.65
64624;BMP280;51031;50.912;9.242;2022-08-14T01:37:59;98853.94;;;28.64
64624;BMP280;51031;50.912;9.242;2022-08-14T01:38:15;98853.94;;;28.64
64624;BMP280;51031;50.912;9.242;2022-08-14T01:38:30;98856.66;;;28.64
64624;BMP280;51031;50.912;9.242;2022-08-14T01:38:50;98856.66;;;28.64
64624;BMP280;51031;50.912;9.242;2022-08-14T01:39:09;98855.81;;;28.63
64624;BMP280;51031;50.912;9.242;2022-08-14T01:39:25;98855.00;;;28.63
64624;BMP280;51031;50.912;9.242;2022-08-14T01:39:42;98855.00;;;28.63
64624;BMP280;51031;50.912;9.242;2022-08-14T01:39:59;98862.03;;;28.64
64624;BMP280;51031;50.912;9.242;2022-08-14T01:40:15;98865.78;;;28.63
64624;BMP280;51031;50.912;9.242;2022-08-14T01:40:32;98859.34;;;28.64